createdAt,value
2019-05-12T00:00:24.559Z,6.90
2019-05-12T00:02:55.562Z,6.90
2019-05-12T00:05:27.947Z,6.90
2019-05-12T00:07:59.154Z,6.90
2019-05-12T00:10:30.178Z,6.80
2019-05-12T00:13:01.733Z,6.80
2019-05-12T00:15:33.569Z,6.90
2019-05-12T00:18:04.533Z,6.90
2019-05-12T00:20:38.650Z,7.00
2019-05-12T00:23:23.950Z,7.00
2019-05-12T00:25:42.811Z,6.90
2019-05-12T00:28:13.988Z,7.00
2019-05-12T00:30:52.320Z,7.00
2019-05-12T00:33:23.291Z,7.00
2019-05-12T00:35:54.263Z,7.10
2019-05-12T00:38:25.204Z,7.10
2019-05-12T00:40:58.332Z,7.10
2019-05-12T00:43:28.929Z,7.10
2019-05-12T00:45:59.914Z,7.10
2019-05-12T00:48:30.912Z,7.10
2019-05-12T00:51:01.882Z,7.10
2019-05-12T00:53:39.896Z,7.10
2019-05-12T00:56:05.582Z,7.20
2019-05-12T00:58:38.237Z,7.20
2019-05-12T01:01:09.843Z,7.30
2019-05-12T01:03:40.788Z,7.30
2019-05-12T01:06:11.768Z,7.20
2019-05-12T01:08:42.706Z,7.20
2019-05-12T01:11:13.675Z,7.20
2019-05-12T01:13:44.621Z,7.20
2019-05-12T01:16:15.602Z,7.20
2019-05-12T01:18:47.974Z,7.20
2019-05-12T01:21:19.206Z,7.20
2019-05-12T01:23:56.556Z,7.30
2019-05-12T01:26:22.925Z,7.20
2019-05-12T01:28:53.863Z,7.20
2019-05-12T01:31:28.482Z,7.10
2019-05-12T01:33:59.043Z,7.10
2019-05-12T01:36:30.105Z,7.10
2019-05-12T01:39:01.930Z,7.10
2019-05-12T01:41:33.387Z,7.20
2019-05-12T01:44:04.321Z,7.10
2019-05-12T01:46:38.152Z,7.00
2019-05-12T01:49:08.485Z,7.10
2019-05-12T01:51:39.628Z,7.10
2019-05-12T01:54:14.879Z,7.00
2019-05-12T01:56:43.233Z,7.10
2019-05-12T01:59:14.163Z,7.10
2019-05-12T02:01:45.134Z,7.00
2019-05-12T02:04:18.056Z,7.10
2019-05-12T02:06:48.770Z,7.20
2019-05-12T02:09:21.278Z,7.20
2019-05-12T02:11:52.250Z,7.10
2019-05-12T02:14:23.221Z,7.00
2019-05-12T02:16:54.157Z,7.00
2019-05-12T02:19:25.172Z,6.90
2019-05-12T02:21:57.901Z,6.90
2019-05-12T02:24:30.602Z,6.90
2019-05-12T02:27:01.742Z,6.90
2019-05-12T02:29:32.671Z,6.90
2019-05-12T02:32:03.643Z,6.90
2019-05-12T02:34:35.089Z,6.90
2019-05-12T02:37:06.241Z,6.90
2019-05-12T02:39:37.206Z,6.80
2019-05-12T02:42:08.181Z,6.80
2019-05-12T02:44:39.155Z,6.80
2019-05-12T02:47:10.085Z,6.80
2019-05-12T02:49:41.055Z,6.80
2019-05-12T02:52:15.197Z,6.70
2019-05-12T02:54:55.409Z,6.70
2019-05-12T02:57:17.702Z,6.70
2019-05-12T02:59:50.367Z,6.70
2019-05-12T03:02:24.448Z,6.70
2019-05-12T03:04:55.268Z,6.70
2019-05-12T03:07:28.889Z,6.70
2019-05-12T03:10:05.024Z,6.50
2019-05-12T03:12:34.655Z,6.50
2019-05-12T03:15:08.012Z,6.30
2019-05-12T03:17:38.947Z,6.30
2019-05-12T03:20:10.417Z,6.40
2019-05-12T03:22:44.801Z,6.30
2019-05-12T03:25:24.311Z,6.30
2019-05-12T03:27:47.674Z,6.30
2019-05-12T03:30:19.804Z,6.30
2019-05-12T03:32:50.979Z,6.20
2019-05-12T03:35:32.210Z,6.20
2019-05-12T03:37:54.827Z,6.20
2019-05-12T03:40:25.978Z,6.20
2019-05-12T03:42:56.921Z,6.20
2019-05-12T03:45:27.979Z,6.20
2019-05-12T03:47:59.004Z,6.10
2019-05-12T03:50:29.972Z,6.20
2019-05-12T03:53:08.415Z,6.10
2019-05-12T03:55:38.034Z,6.20
2019-05-12T03:58:07.404Z,6.20
2019-05-12T04:00:38.372Z,6.20
2019-05-12T04:03:09.338Z,6.20
2019-05-12T04:05:40.280Z,6.10
2019-05-12T04:08:11.256Z,6.10
2019-05-12T04:10:45.188Z,6.20
2019-05-12T04:13:15.316Z,6.20
2019-05-12T04:15:46.470Z,6.20
2019-05-12T04:18:17.459Z,6.10
2019-05-12T04:20:48.393Z,6.10
2019-05-12T04:23:19.361Z,6.10
2019-05-12T04:25:54.011Z,6.10
2019-05-12T04:28:24.595Z,6.10
2019-05-12T04:30:55.780Z,6.20
2019-05-12T04:33:26.747Z,6.10
2019-05-12T04:35:57.705Z,6.00
2019-05-12T04:38:28.678Z,6.00
2019-05-12T04:40:59.689Z,6.10
2019-05-12T04:43:30.656Z,6.10
2019-05-12T04:46:04.869Z,6.10
2019-05-12T04:48:35.956Z,6.00
2019-05-12T04:51:08.037Z,5.90
2019-05-12T04:53:39.054Z,5.90
2019-05-12T04:56:16.795Z,5.90
2019-05-12T04:58:45.037Z,5.70
2019-05-12T05:01:15.793Z,5.70
2019-05-12T05:03:48.472Z,5.70
2019-05-12T05:06:19.470Z,5.80
2019-05-12T05:08:50.502Z,5.90
2019-05-12T05:11:21.440Z,6.00
2019-05-12T05:13:54.771Z,6.00
2019-05-12T05:16:25.160Z,5.80
2019-05-12T05:18:56.218Z,5.70
2019-05-12T05:21:27.211Z,5.80
2019-05-12T05:23:58.185Z,5.70
2019-05-12T05:26:29.114Z,5.70
2019-05-12T05:29:00.091Z,5.60
2019-05-12T05:31:31.031Z,5.60
2019-05-12T05:34:04.425Z,5.60
2019-05-12T05:36:34.916Z,5.60
2019-05-12T05:39:07.885Z,5.70
2019-05-12T05:41:40.116Z,5.70
2019-05-12T05:44:13.726Z,5.70
2019-05-12T05:46:49.814Z,5.50
2019-05-12T05:49:16.881Z,5.30
2019-05-12T05:51:54.251Z,5.20
2019-05-12T05:54:25.181Z,5.20
2019-05-12T05:56:59.671Z,5.30
2019-05-12T05:59:31.499Z,5.30
2019-05-12T06:01:58.468Z,5.40
2019-05-12T06:04:29.434Z,5.40
2019-05-12T06:07:00.399Z,5.40
2019-05-12T06:09:31.347Z,5.40
2019-05-12T06:12:07.545Z,5.30
2019-05-12T06:14:34.990Z,5.30
2019-05-12T06:17:05.965Z,5.30
2019-05-12T06:19:36.902Z,5.40
2019-05-12T06:22:08.996Z,5.30
2019-05-12T06:24:40.521Z,5.30
2019-05-12T06:27:16.258Z,5.10
2019-05-12T06:29:45.347Z,4.90
2019-05-12T06:32:16.314Z,5.00
2019-05-12T06:34:50.999Z,5.00
2019-05-12T06:37:19.931Z,4.90
2019-05-12T06:39:55.742Z,4.90
2019-05-12T06:42:24.184Z,5.00
2019-05-12T06:44:58.166Z,5.00
2019-05-12T06:47:27.986Z,5.10
2019-05-12T06:49:58.918Z,5.20
2019-05-12T06:52:29.893Z,5.40
2019-05-12T06:55:00.832Z,5.50
2019-05-12T06:57:34.121Z,5.30
2019-05-12T07:00:06.696Z,5.10
2019-05-12T07:02:49.137Z,5.20
2019-05-12T07:05:10.423Z,5.10
2019-05-12T07:07:44.307Z,5.10
2019-05-12T07:10:35.136Z,5.10
2019-05-12T07:12:58.977Z,5.30
2019-05-12T07:15:19.758Z,5.30
2019-05-12T07:17:55.675Z,5.20
2019-05-12T07:20:29.233Z,5.20
2019-05-12T07:22:57.798Z,5.20
2019-05-12T07:25:31.163Z,5.30
2019-05-12T07:28:07.234Z,5.20
2019-05-12T07:30:35.113Z,5.20
2019-05-12T07:33:06.703Z,5.30
2019-05-12T07:35:38.468Z,5.50
2019-05-12T07:38:12.020Z,5.40
2019-05-12T07:40:44.677Z,5.50
2019-05-12T07:43:20.466Z,5.60
2019-05-12T07:45:56.575Z,5.70
2019-05-12T07:48:25.087Z,5.70
2019-05-12T07:51:00.448Z,5.70
2019-05-12T07:53:28.722Z,5.60
2019-05-12T07:56:01.223Z,5.50
2019-05-12T07:58:33.295Z,5.30
2019-05-12T08:01:07.834Z,5.30
2019-05-12T08:03:37.022Z,5.40
2019-05-12T08:06:07.963Z,5.60
2019-05-12T08:08:41.915Z,5.70
2019-05-12T08:11:11.567Z,5.50
2019-05-12T08:13:43.883Z,5.40
2019-05-12T08:16:19.512Z,5.40
2019-05-12T08:18:47.726Z,5.40
2019-05-12T08:21:18.662Z,5.60
2019-05-12T08:23:49.628Z,5.70
2019-05-12T08:26:20.567Z,5.50
2019-05-12T08:28:53.539Z,5.40
2019-05-12T08:31:31.864Z,5.40
2019-05-12T08:33:56.848Z,5.60
2019-05-12T08:36:27.783Z,5.70
2019-05-12T08:38:58.758Z,5.50
2019-05-12T08:41:29.719Z,5.60
2019-05-12T08:44:00.719Z,5.60
2019-05-12T08:46:33.949Z,5.60
2019-05-12T08:49:05.361Z,5.60
2019-05-12T08:51:36.517Z,5.50
2019-05-12T08:54:08.298Z,5.50
2019-05-12T08:56:39.596Z,5.50
2019-05-12T08:59:17.463Z,5.50
2019-05-12T09:01:43.806Z,5.50
2019-05-12T09:04:18.050Z,5.70
2019-05-12T09:06:50.108Z,5.60
2019-05-12T09:09:20.495Z,5.50
2019-05-12T09:11:51.443Z,5.50
2019-05-12T09:14:23.911Z,5.60
2019-05-12T09:17:02.152Z,5.70
2019-05-12T09:19:27.693Z,5.90
2019-05-12T09:21:58.652Z,6.00
2019-05-12T09:24:29.620Z,5.90
2019-05-12T09:27:07.011Z,5.90
2019-05-12T09:29:34.151Z,6.00
2019-05-12T09:32:09.356Z,5.80
2019-05-12T09:34:37.944Z,5.70
2019-05-12T09:37:08.979Z,5.60
2019-05-12T09:39:42.449Z,5.50
2019-05-12T09:42:14.201Z,5.40
2019-05-12T09:44:45.359Z,5.40
2019-05-12T09:47:23.283Z,5.50
2019-05-12T09:49:50.825Z,5.50
2019-05-12T09:52:26.750Z,5.60
2019-05-12T09:54:54.508Z,5.80
2019-05-12T09:57:25.484Z,5.90
2019-05-12T09:59:59.416Z,5.90
2019-05-12T10:02:29.191Z,5.90
2019-05-12T10:05:00.896Z,6.00
2019-05-12T10:07:33.948Z,6.00
2019-05-12T10:10:08.605Z,5.90
2019-05-12T10:12:46.343Z,5.90
2019-05-12T10:15:13.684Z,6.10
2019-05-12T10:17:46.190Z,6.10
2019-05-12T10:20:17.330Z,6.20
2019-05-12T10:22:48.326Z,6.10
2019-05-12T10:25:23.155Z,6.20
2019-05-12T10:27:53.242Z,6.40
2019-05-12T10:30:24.404Z,6.50
2019-05-12T10:32:55.370Z,6.40
2019-05-12T10:35:26.891Z,6.30
2019-05-12T10:38:00.163Z,6.20
2019-05-12T10:40:30.612Z,6.30
2019-05-12T10:43:04.131Z,6.40
2019-05-12T10:45:35.910Z,6.60
2019-05-12T10:48:07.095Z,6.50
2019-05-12T10:50:38.030Z,6.30
2019-05-12T10:53:09.767Z,6.20
2019-05-12T10:55:43.944Z,6.30
2019-05-12T10:58:14.775Z,6.70
2019-05-12T11:00:45.836Z,6.80
2019-05-12T11:03:16.806Z,6.70
2019-05-12T11:05:47.742Z,6.80
2019-05-12T11:08:18.789Z,6.70
2019-05-12T11:10:50.337Z,6.40
2019-05-12T11:13:23.376Z,6.30
2019-05-12T11:15:54.748Z,6.10
2019-05-12T11:18:30.312Z,6.20
2019-05-12T11:20:58.362Z,6.20
2019-05-12T11:23:29.433Z,6.20
2019-05-12T11:26:00.383Z,6.00
2019-05-12T11:28:33.469Z,5.90
2019-05-12T11:31:03.989Z,6.20
2019-05-12T11:33:34.969Z,6.30
2019-05-12T11:36:05.985Z,6.30
2019-05-12T11:38:36.940Z,6.00
2019-05-12T11:41:09.940Z,6.10
2019-05-12T11:43:40.573Z,6.20
2019-05-12T11:46:11.563Z,6.30
2019-05-12T11:48:46.310Z,6.30
2019-05-12T11:51:15.237Z,6.30
2019-05-12T11:53:46.282Z,6.30
2019-05-12T11:56:17.263Z,6.20
2019-05-12T11:58:51.418Z,6.10
2019-05-12T12:01:24.266Z,6.30
2019-05-12T12:03:55.399Z,6.40
2019-05-12T12:06:26.346Z,6.40
2019-05-12T12:08:57.390Z,6.60
2019-05-12T12:11:28.352Z,6.70
2019-05-12T12:14:00.236Z,6.90
2019-05-12T12:16:34.082Z,6.90
2019-05-12T12:19:06.006Z,6.90
2019-05-12T12:21:40.280Z,6.90
2019-05-12T12:24:09.796Z,6.80
2019-05-12T12:26:40.771Z,6.90
2019-05-12T12:29:13.594Z,7.10
2019-05-12T12:31:48.679Z,7.00
2019-05-12T12:34:29.790Z,7.10
2019-05-12T12:36:54.371Z,7.30
2019-05-12T12:39:25.747Z,7.20
2019-05-12T12:42:00.311Z,7.10
2019-05-12T12:44:29.372Z,7.00
2019-05-12T12:47:01.808Z,7.10
2019-05-12T12:49:33.921Z,7.30
2019-05-12T12:52:05.026Z,7.60
2019-05-12T12:54:36.055Z,7.60
2019-05-12T12:57:09.964Z,7.50
2019-05-12T12:59:45.460Z,7.40
2019-05-12T13:02:14.295Z,7.30
2019-05-12T13:04:50.348Z,7.50
2019-05-12T13:07:18.774Z,7.70
2019-05-12T13:09:54.992Z,8.00
2019-05-12T13:12:22.454Z,8.10
2019-05-12T13:14:53.403Z,8.20
2019-05-12T13:17:28.955Z,8.20
2019-05-12T13:19:58.829Z,8.10
2019-05-12T13:22:30.104Z,8.30
2019-05-12T13:25:04.512Z,8.30
2019-05-12T13:27:36.741Z,8.40
2019-05-12T13:30:18.833Z,8.60
2019-05-12T13:32:44.194Z,8.80
2019-05-12T13:35:18.796Z,8.90
2019-05-12T13:37:50.255Z,9.10
2019-05-12T13:40:20.348Z,9.50
2019-05-12T13:42:51.323Z,9.70
2019-05-12T13:45:24.172Z,9.90
2019-05-12T13:47:54.977Z,9.80
2019-05-12T13:50:26.542Z,9.80
2019-05-12T13:53:01.054Z,9.80
2019-05-12T13:55:34.160Z,9.60
2019-05-12T13:58:05.055Z,9.50
2019-05-12T14:00:36.002Z,9.20
2019-05-12T14:03:09.551Z,8.80
2019-05-12T14:05:41.208Z,8.60
2019-05-12T14:08:14.454Z,8.40
2019-05-12T14:10:53.658Z,8.20
2019-05-12T14:13:18.764Z,8.10
2019-05-12T14:15:50.735Z,7.90
2019-05-12T14:18:22.709Z,7.80
2019-05-12T14:20:58.935Z,7.70
2019-05-12T14:23:26.362Z,7.50
2019-05-12T14:26:02.126Z,7.60
2019-05-12T14:28:30.004Z,7.60
2019-05-12T14:31:01.051Z,7.50
2019-05-12T14:33:37.472Z,7.40
2019-05-12T14:36:06.213Z,7.40
2019-05-12T14:38:37.190Z,7.50
2019-05-12T14:41:11.633Z,7.50
2019-05-12T14:43:40.988Z,7.50
2019-05-12T14:46:13.488Z,7.50
2019-05-12T14:48:46.466Z,7.60
2019-05-12T14:51:17.382Z,7.50
2019-05-12T14:53:48.424Z,7.50
2019-05-12T14:56:19.467Z,7.30
2019-05-12T14:58:55.567Z,7.20
2019-05-12T15:01:23.827Z,7.10
2019-05-12T15:03:55.031Z,7.20
2019-05-12T15:06:29.610Z,7.20
2019-05-12T15:09:03.366Z,7.20
2019-05-12T15:11:34.172Z,7.30
2019-05-12T15:14:05.569Z,7.30
2019-05-12T15:16:40.373Z,7.40
2019-05-12T15:19:09.921Z,7.50
2019-05-12T15:21:43.512Z,7.50
2019-05-12T15:24:18.748Z,7.70
2019-05-12T15:26:50.596Z,7.80
2019-05-12T15:29:20.173Z,7.90
2019-05-12T15:31:55.868Z,8.00
2019-05-12T15:34:25.159Z,8.30
2019-05-12T15:36:58.454Z,8.30
2019-05-12T15:39:28.898Z,8.30
2019-05-12T15:42:00.053Z,8.20
2019-05-12T15:44:32.315Z,8.40
2019-05-12T15:47:03.974Z,8.60
2019-05-12T15:49:35.022Z,8.70
2019-05-12T15:52:05.998Z,8.60
2019-05-12T15:54:45.658Z,8.60
2019-05-12T15:57:09.709Z,8.50
2019-05-12T15:59:40.739Z,8.30
2019-05-12T16:02:16.230Z,7.80
2019-05-12T16:04:48.215Z,7.80
2019-05-12T16:07:17.177Z,7.90
2019-05-12T16:09:48.317Z,8.00
2019-05-12T16:12:23.696Z,8.00
2019-05-12T16:14:54.062Z,8.00
2019-05-12T16:17:26.996Z,8.00
2019-05-12T16:20:00.398Z,8.30
2019-05-12T16:22:37.297Z,8.40
2019-05-12T16:25:06.393Z,8.20
2019-05-12T16:27:37.809Z,8.30
2019-05-12T16:30:09.562Z,8.00
2019-05-12T16:32:46.444Z,7.80
2019-05-12T16:35:14.601Z,7.70
2019-05-12T16:37:45.946Z,7.60
2019-05-12T16:40:17.405Z,7.60
2019-05-12T16:42:56.144Z,7.50
2019-05-12T16:45:23.324Z,7.40
2019-05-12T16:47:53.974Z,7.30
2019-05-12T16:50:27.942Z,7.40
2019-05-12T16:52:57.686Z,7.40
2019-05-12T16:55:28.706Z,7.50
2019-05-12T16:57:59.705Z,7.50
2019-05-12T17:00:31.237Z,7.60
2019-05-12T17:03:03.881Z,7.60
2019-05-12T17:05:34.999Z,7.40
2019-05-12T17:08:06.028Z,7.30
2019-05-12T17:10:37.002Z,7.40
2019-05-12T17:13:13.340Z,7.30
2019-05-12T17:15:40.682Z,7.20
2019-05-12T17:18:13.612Z,7.50
2019-05-12T17:20:49.294Z,7.60
2019-05-12T17:23:17.058Z,7.50
2019-05-12T17:25:48.072Z,7.40
2019-05-12T17:28:19.041Z,7.30
2019-05-12T17:30:50.033Z,7.20
2019-05-12T17:33:27.447Z,7.20
2019-05-12T17:35:56.543Z,7.40
2019-05-12T17:38:30.103Z,7.60
2019-05-12T17:41:00.909Z,7.70
2019-05-12T17:43:33.866Z,7.70
2019-05-12T17:46:05.104Z,7.80
2019-05-12T17:48:37.263Z,7.60
2019-05-12T17:51:08.791Z,7.60
2019-05-12T17:53:39.752Z,7.40
2019-05-12T17:56:11.076Z,7.30
2019-05-12T17:58:47.015Z,7.20
2019-05-12T18:01:14.819Z,7.20
2019-05-12T18:03:50.509Z,7.30
2019-05-12T18:06:20.544Z,7.30
2019-05-12T18:08:53.256Z,7.10
2019-05-12T18:11:24.193Z,7.20
2019-05-12T18:14:02.450Z,7.10
2019-05-12T18:16:29.092Z,7.10
2019-05-12T18:19:00.222Z,7.20
2019-05-12T18:21:33.973Z,7.20
2019-05-12T18:24:06.773Z,6.90
2019-05-12T18:26:36.562Z,7.00
2019-05-12T18:29:07.598Z,6.90
2019-05-12T18:31:43.646Z,6.90
2019-05-12T18:34:15.855Z,6.90
2019-05-12T18:36:49.039Z,6.60
2019-05-12T18:39:19.469Z,6.50
2019-05-12T18:41:50.449Z,6.70
2019-05-12T18:44:28.774Z,6.70
2019-05-12T18:46:54.337Z,6.60
2019-05-12T18:49:25.309Z,6.60
2019-05-12T18:51:57.244Z,6.80
2019-05-12T18:54:28.507Z,6.70
2019-05-12T18:57:06.455Z,6.60
2019-05-12T18:59:46.125Z,6.80
2019-05-12T19:02:22.742Z,7.00
2019-05-12T19:04:47.839Z,7.00
2019-05-12T19:07:18.784Z,7.00
2019-05-12T19:09:49.767Z,6.90
2019-05-12T19:12:29.392Z,6.60
2019-05-12T19:14:54.700Z,6.60
2019-05-12T19:17:25.796Z,6.40
2019-05-12T19:20:00.019Z,6.30
2019-05-12T19:22:29.441Z,6.30
2019-05-12T19:25:00.530Z,6.50
2019-05-12T19:27:31.643Z,6.50
2019-05-12T19:30:05.532Z,6.40
2019-05-12T19:32:36.758Z,6.50
2019-05-12T19:35:14.517Z,6.40
2019-05-12T19:37:43.046Z,6.30
2019-05-12T19:40:17.601Z,6.20
2019-05-12T19:42:47.603Z,6.30
2019-05-12T19:45:21.741Z,6.20
2019-05-12T19:47:53.393Z,6.20
2019-05-12T19:50:27.086Z,6.20
2019-05-12T19:52:58.121Z,6.20
2019-05-12T19:55:29.228Z,6.30
2019-05-12T19:58:05.464Z,6.30
2019-05-12T20:00:33.503Z,6.30
2019-05-12T20:03:08.352Z,6.30
2019-05-12T20:05:37.431Z,6.30
2019-05-12T20:08:13.436Z,6.30
2019-05-12T20:10:49.223Z,6.50
2019-05-12T20:13:16.467Z,6.50
2019-05-12T20:15:47.603Z,6.70
2019-05-12T20:18:23.402Z,6.90
2019-05-12T20:20:54.283Z,6.90
2019-05-12T20:23:25.478Z,6.80
2019-05-12T20:25:56.504Z,6.70
2019-05-12T20:28:27.484Z,6.70
2019-05-12T20:31:03.937Z,6.50
2019-05-12T20:33:31.228Z,6.40
2019-05-12T20:36:04.126Z,6.50
2019-05-12T20:38:36.910Z,6.60
2019-05-12T20:41:10.357Z,6.60
2019-05-12T20:43:42.023Z,6.50
2019-05-12T20:46:21.731Z,6.40
2019-05-12T20:48:45.965Z,6.30
2019-05-12T20:51:20.129Z,6.40
2019-05-12T20:53:49.910Z,6.50
2019-05-12T20:56:22.641Z,6.60
2019-05-12T20:58:53.576Z,6.60
2019-05-12T21:01:28.239Z,6.50
2019-05-12T21:03:57.660Z,6.40
2019-05-12T21:06:33.003Z,6.20
2019-05-12T21:09:03.437Z,6.20
2019-05-12T21:11:34.656Z,6.10
2019-05-12T21:14:09.833Z,6.10
2019-05-12T21:16:38.955Z,6.10
2019-05-12T21:19:11.236Z,6.00
2019-05-12T21:21:44.505Z,5.90
2019-05-12T21:24:15.812Z,5.80
2019-05-12T21:26:46.873Z,5.80
2019-05-12T21:29:19.022Z,5.90
2019-05-12T21:31:50.568Z,5.90
2019-05-12T21:34:23.373Z,5.90
2019-05-12T21:36:59.077Z,6.10
2019-05-12T21:39:27.064Z,6.20
2019-05-12T21:41:58.197Z,6.40
2019-05-12T21:44:29.309Z,6.30
2019-05-12T21:47:09.379Z,6.20
2019-05-12T21:49:33.296Z,6.10
2019-05-12T21:52:06.565Z,6.00
2019-05-12T21:54:39.686Z,6.20
2019-05-12T21:57:10.952Z,6.30
2019-05-12T21:59:41.939Z,6.20
2019-05-12T22:02:14.677Z,6.20
2019-05-12T22:04:45.939Z,6.00
2019-05-12T22:07:17.295Z,6.00
2019-05-12T22:09:48.318Z,6.00
2019-05-12T22:12:23.485Z,6.00
2019-05-12T22:14:54.316Z,6.00
2019-05-12T22:17:25.028Z,6.10
2019-05-12T22:19:56.058Z,6.10
2019-05-12T22:22:29.938Z,6.00
2019-05-12T22:24:59.909Z,6.10
2019-05-12T22:27:31.036Z,6.00
2019-05-12T22:30:04.257Z,6.20
2019-05-12T22:32:34.836Z,6.30
2019-05-12T22:35:15.153Z,6.10
2019-05-12T22:37:40.329Z,6.00
2019-05-12T22:40:17.983Z,5.90
2019-05-12T22:42:50.602Z,6.00
2019-05-12T22:45:20.511Z,6.10
2019-05-12T22:47:57.323Z,6.20
2019-05-12T22:50:27.367Z,6.10
2019-05-12T22:52:57.624Z,6.10
2019-05-12T22:55:32.506Z,6.00
2019-05-12T22:58:01.513Z,6.20
2019-05-12T23:00:34.313Z,6.10
2019-05-12T23:03:11.489Z,6.10
2019-05-12T23:05:38.005Z,6.00
2019-05-12T23:08:10.144Z,6.20
2019-05-12T23:10:50.307Z,6.40
2019-05-12T23:13:14.033Z,6.30
2019-05-12T23:15:49.304Z,6.30
2019-05-12T23:18:25.885Z,6.20
2019-05-12T23:20:54.112Z,6.10
2019-05-12T23:23:26.353Z,6.00
2019-05-12T23:26:00.552Z,5.90
2019-05-12T23:28:30.014Z,5.80
2019-05-12T23:31:01.139Z,5.90
2019-05-12T23:33:36.434Z,6.10
2019-05-12T23:36:09.747Z,5.90
2019-05-12T23:38:37.617Z,5.70
2019-05-12T23:41:08.571Z,5.60
2019-05-12T23:43:40.639Z,5.70
2019-05-12T23:46:11.794Z,5.70
2019-05-12T23:48:43.977Z,5.70
2019-05-12T23:51:15.113Z,5.60
2019-05-12T23:53:46.087Z,5.60
2019-05-12T23:56:17.032Z,5.60
2019-05-12T23:58:48.019Z,5.50
